Time;durP1;ratioP1;P1;durP2;ratioP2;P2;SDS_P1;SDS_P2;PMS_P1;PMS_P2;Temp;Humidity;BMP_temperature;BMP_pressure;BME280_temperature;BME280_humidity;BME280_pressure;Samples;Min_cycle;Max_cycle;Signal;HPM_P1;HPM_P2
2022/05/07 00:00:41;;;;;;;17.85;15.20;;;;;;;;;;5017303;28;20168;-67
2022/05/07 00:03:07;;;;;;;18.60;14.00;;;;;;;;;;5017804;28;20116;-67
2022/05/07 00:05:33;;;;;;;16.70;13.88;;;;;;;;;;5017628;28;20068;-67
2022/05/07 00:07:59;;;;;;;20.02;16.05;;;;;;;;;;5016660;28;20122;-67
2022/05/07 00:10:25;;;;;;;18.75;15.52;;;;;;;;;;5017510;28;20091;-67
2022/05/07 00:12:52;;;;;;;18.60;15.52;;;;;;;;;;5015613;28;20117;-67
2022/05/07 00:15:18;;;;;;;19.60;14.90;;;;;;;;;;5013896;28;20038;-67
2022/05/07 00:18:03;;;;;;;19.65;15.00;;;;;;;;;;5014550;28;20503;-67
2022/05/07 00:20:33;;;;;;;23.45;15.43;;;;;;;;;;5014783;28;20046;-67
2022/05/07 00:23:00;;;;;;;18.17;14.23;;;;;;;;;;5014002;28;20500;-67
2022/05/07 00:25:26;;;;;;;19.40;14.20;;;;;;;;;;5014273;28;20054;-67
2022/05/07 00:27:52;;;;;;;19.42;14.85;;;;;;;;;;5014207;28;20042;-67
2022/05/07 00:30:18;;;;;;;20.15;15.57;;;;;;;;;;5013919;28;20089;-67
2022/05/07 00:32:44;;;;;;;20.90;15.02;;;;;;;;;;5014288;28;20046;-67
2022/05/07 00:35:10;;;;;;;21.27;15.38;;;;;;;;;;5014423;28;20053;-67
2022/05/07 00:37:38;;;;;;;18.65;14.93;;;;;;;;;;5013672;28;20038;-67
2022/05/07 00:40:04;;;;;;;23.35;16.13;;;;;;;;;;5014213;28;20528;-67
2022/05/07 00:42:30;;;;;;;22.70;17.52;;;;;;;;;;5014186;28;20033;-67
2022/05/07 00:44:57;;;;;;;22.02;17.20;;;;;;;;;;5013441;28;20034;-67
2022/05/07 00:47:25;;;;;;;24.48;17.52;;;;;;;;;;5013966;28;20064;-67
2022/05/07 00:49:52;;;;;;;22.02;18.15;;;;;;;;;;5013886;28;20050;-67
2022/05/07 00:52:19;;;;;;;21.95;18.00;;;;;;;;;;5013356;28;20342;-67
2022/05/07 00:54:46;;;;;;;24.90;18.55;;;;;;;;;;5013720;28;20084;-67
2022/05/07 00:57:12;;;;;;;24.27;17.83;;;;;;;;;;5013854;28;20496;-67
2022/05/07 00:59:38;;;;;;;22.27;17.42;;;;;;;;;;5012825;28;20042;-67
2022/05/07 01:02:04;;;;;;;23.15;17.10;;;;;;;;;;5012204;28;20407;-67
2022/05/07 01:04:31;;;;;;;23.05;17.90;;;;;;;;;;5013520;28;20042;-67
2022/05/07 01:06:57;;;;;;;22.13;16.73;;;;;;;;;;5012730;28;20173;-67
2022/05/07 01:09:23;;;;;;;26.20;17.90;;;;;;;;;;5013622;28;20053;-67
2022/05/07 01:11:50;;;;;;;24.10;17.48;;;;;;;;;;5012621;28;20049;-67
2022/05/07 01:14:16;;;;;;;21.23;17.05;;;;;;;;;;5013023;28;20448;-67
2022/05/07 01:16:43;;;;;;;23.80;17.85;;;;;;;;;;5013579;28;20100;-67
2022/05/07 01:19:09;;;;;;;24.30;17.20;;;;;;;;;;5013497;28;20080;-67
2022/05/07 01:21:35;;;;;;;29.10;18.73;;;;;;;;;;5012798;28;20451;-67
2022/05/07 01:24:01;;;;;;;24.02;17.65;;;;;;;;;;5013122;28;20176;-67
2022/05/07 01:26:27;;;;;;;22.35;17.23;;;;;;;;;;5013361;28;20074;-67
2022/05/07 01:29:00;;;;;;;23.00;17.95;;;;;;;;;;5012286;28;20050;-67
2022/05/07 01:31:27;;;;;;;22.27;17.45;;;;;;;;;;5013015;28;20053;-67
2022/05/07 01:33:53;;;;;;;23.60;17.88;;;;;;;;;;5013120;28;20095;-67
2022/05/07 01:36:19;;;;;;;21.55;16.63;;;;;;;;;;5012544;28;20050;-67
2022/05/07 01:38:46;;;;;;;22.02;18.15;;;;;;;;;;5012890;28;20042;-67
2022/05/07 01:41:12;;;;;;;23.00;18.13;;;;;;;;;;5012824;28;20042;-67
2022/05/07 01:43:38;;;;;;;23.00;17.08;;;;;;;;;;5012302;28;20137;-67
2022/05/07 01:48:09;;;;;;;27.73;19.40;;;;;;;;;;5012968;28;20615;-67
2022/05/07 01:48:51;;;;;;;23.58;19.05;;;;;;;;;;5012594;28;20473;-67
2022/05/07 01:51:17;;;;;;;25.45;19.13;;;;;;;;;;5012272;28;20087;-67
2022/05/07 01:53:43;;;;;;;27.85;19.52;;;;;;;;;;5012825;28;20049;-67
2022/05/07 01:56:09;;;;;;;24.70;18.75;;;;;;;;;;5012686;28;20049;-67
2022/05/07 01:58:35;;;;;;;27.63;18.92;;;;;;;;;;5011833;28;20045;-67
2022/05/07 02:01:01;;;;;;;23.88;18.13;;;;;;;;;;5027744;28;20045;-67
2022/05/07 02:03:27;;;;;;;26.60;20.23;;;;;;;;;;5012670;28;20041;-67
2022/05/07 02:05:53;;;;;;;25.65;20.08;;;;;;;;;;5011533;28;20093;-67
2022/05/07 02:08:19;;;;;;;23.20;18.80;;;;;;;;;;5012264;28;20081;-67
2022/05/07 02:10:45;;;;;;;23.83;19.48;;;;;;;;;;5012649;28;20048;-67
2022/05/07 02:13:11;;;;;;;27.05;19.92;;;;;;;;;;5011895;28;20049;-67
2022/05/07 02:15:37;;;;;;;24.67;19.13;;;;;;;;;;5012223;28;20037;-67
2022/05/07 02:18:03;;;;;;;24.73;19.67;;;;;;;;;;5012315;28;20041;-67
2022/05/07 02:20:29;;;;;;;27.98;21.40;;;;;;;;;;5011765;28;20038;-67
2022/05/07 02:22:56;;;;;;;26.58;20.80;;;;;;;;;;5012378;28;20073;-67
2022/05/07 02:25:23;;;;;;;29.15;20.42;;;;;;;;;;5012200;28;20070;-67
2022/05/07 02:27:49;;;;;;;26.50;21.42;;;;;;;;;;5011227;28;20734;-67
2022/05/07 02:30:15;;;;;;;28.73;21.02;;;;;;;;;;5012314;28;20465;-67
2022/05/07 02:32:41;;;;;;;26.77;20.02;;;;;;;;;;5012355;28;20041;-67
2022/05/07 02:35:08;;;;;;;28.38;20.90;;;;;;;;;;5011617;28;20048;-67
2022/05/07 02:37:34;;;;;;;25.15;20.70;;;;;;;;;;5009820;28;20045;-67
2022/05/07 02:40:00;;;;;;;27.55;21.05;;;;;;;;;;5011973;28;20041;-67
2022/05/07 02:42:39;;;;;;;27.42;20.83;;;;;;;;;;5011666;28;20045;-67
2022/05/07 02:45:09;;;;;;;32.10;21.83;;;;;;;;;;5010495;28;20073;-67
2022/05/07 02:47:36;;;;;;;27.63;22.02;;;;;;;;;;4994100;28;20104;-67
2022/05/07 02:50:03;;;;;;;24.98;21.55;;;;;;;;;;5011162;28;20112;-67
2022/05/07 02:52:32;;;;;;;28.77;22.02;;;;;;;;;;5011928;28;20485;-67
2022/05/07 02:54:59;;;;;;;29.98;21.52;;;;;;;;;;5011977;28;20045;-67
2022/05/07 02:57:25;;;;;;;31.27;21.77;;;;;;;;;;5011029;28;20046;-67
2022/05/07 02:59:51;;;;;;;29.75;22.45;;;;;;;;;;5011832;28;20045;-67
2022/05/07 03:02:17;;;;;;;30.60;22.83;;;;;;;;;;5011841;28;20038;-67
2022/05/07 03:04:43;;;;;;;33.65;21.85;;;;;;;;;;5011322;28;20116;-67
2022/05/07 03:07:09;;;;;;;31.23;22.02;;;;;;;;;;5009830;28;20061;-67
2022/05/07 03:09:35;;;;;;;25.05;20.88;;;;;;;;;;5011767;28;20068;-67
2022/05/07 03:12:01;;;;;;;30.58;22.20;;;;;;;;;;5011513;28;20053;-67
2022/05/07 03:14:27;;;;;;;30.15;21.90;;;;;;;;;;5009587;28;20433;-67
2022/05/07 03:16:53;;;;;;;28.63;21.08;;;;;;;;;;5011622;28;20045;-67
2022/05/07 03:19:20;;;;;;;29.60;21.58;;;;;;;;;;5011592;28;20061;-67
2022/05/07 03:21:47;;;;;;;29.25;21.00;;;;;;;;;;5011174;28;20054;-67
2022/05/07 03:24:13;;;;;;;30.02;23.08;;;;;;;;;;5010115;28;20042;-67
2022/05/07 03:26:39;;;;;;;26.73;22.05;;;;;;;;;;5011645;28;20052;-67
2022/05/07 03:29:05;;;;;;;30.17;22.40;;;;;;;;;;5010729;28;20046;-67
2022/05/07 03:31:31;;;;;;;27.95;22.15;;;;;;;;;;5011382;28;20169;-67
2022/05/07 03:33:57;;;;;;;28.50;22.50;;;;;;;;;;5011584;28;20054;-67
2022/05/07 03:36:23;;;;;;;27.02;21.77;;;;;;;;;;5010618;28;20053;-67
2022/05/07 03:38:49;;;;;;;29.92;22.35;;;;;;;;;;5011584;28;20369;-67
2022/05/07 03:41:15;;;;;;;26.52;21.20;;;;;;;;;;5011633;28;20096;-67
2022/05/07 03:43:41;;;;;;;28.15;22.63;;;;;;;;;;5010800;28;20441;-67
2022/05/07 03:46:08;;;;;;;28.92;20.85;;;;;;;;;;5011567;28;20053;-67
2022/05/07 03:48:35;;;;;;;30.70;21.45;;;;;;;;;;5013771;28;20095;-67
2022/05/07 03:51:01;;;;;;;29.55;22.02;;;;;;;;;;5014651;28;20038;-67
2022/05/07 03:53:30;;;;;;;29.98;22.10;;;;;;;;;;5015105;28;20077;-67
2022/05/07 03:56:00;;;;;;;26.23;22.65;;;;;;;;;;5013370;28;20100;-67
2022/05/07 03:58:27;;;;;;;32.30;22.33;;;;;;;;;;5014177;28;20041;-67
2022/05/07 04:00:57;;;;;;;31.08;23.13;;;;;;;;;;5014888;28;20040;-67
2022/05/07 04:03:23;;;;;;;27.33;22.88;;;;;;;;;;5014889;28;20528;-67
2022/05/07 04:05:49;;;;;;;31.13;23.65;;;;;;;;;;5013777;28;20058;-67
2022/05/07 04:08:16;;;;;;;32.03;23.42;;;;;;;;;;5014106;28;20085;-67
2022/05/07 04:10:42;;;;;;;31.80;24.08;;;;;;;;;;5014723;28;20045;-67
2022/05/07 04:13:09;;;;;;;31.92;23.45;;;;;;;;;;5014154;28;20046;-67
2022/05/07 04:15:36;;;;;;;30.40;23.35;;;;;;;;;;5014499;28;20042;-67
2022/05/07 04:18:02;;;;;;;29.65;23.40;;;;;;;;;;5014649;28;20048;-67
2022/05/07 04:20:28;;;;;;;31.98;24.85;;;;;;;;;;5013714;28;20041;-67
2022/05/07 04:22:54;;;;;;;30.70;23.67;;;;;;;;;;5014457;28;20042;-67
2022/05/07 04:25:20;;;;;;;33.65;23.70;;;;;;;;;;5014412;28;20041;-67
2022/05/07 04:27:46;;;;;;;29.58;22.63;;;;;;;;;;5013430;28;20038;-67
2022/05/07 04:30:13;;;;;;;31.70;23.55;;;;;;;;;;5014445;28;20042;-67
2022/05/07 04:32:39;;;;;;;28.58;22.65;;;;;;;;;;5014062;28;20041;-67
2022/05/07 04:35:06;;;;;;;28.35;23.05;;;;;;;;;;5013535;28;20065;-67
2022/05/07 04:37:32;;;;;;;28.25;22.52;;;;;;;;;;5012895;28;20477;-67
2022/05/07 04:39:58;;;;;;;30.10;23.75;;;;;;;;;;5014060;28;20241;-67
2022/05/07 04:42:24;;;;;;;30.10;23.92;;;;;;;;;;5013439;28;20692;-67
2022/05/07 04:44:50;;;;;;;29.42;23.40;;;;;;;;;;5014164;28;20084;-67
2022/05/07 04:47:16;;;;;;;35.53;23.35;;;;;;;;;;5013931;28;20049;-67
2022/05/07 04:49:42;;;;;;;30.50;23.80;;;;;;;;;;5013279;28;20459;-67
2022/05/07 04:52:08;;;;;;;31.17;22.52;;;;;;;;;;5014088;28;20125;-67
2022/05/07 04:54:34;;;;;;;35.95;23.73;;;;;;;;;;5013661;28;20118;-67
2022/05/07 04:57:01;;;;;;;32.53;24.05;;;;;;;;;;5013020;28;20477;-67
2022/05/07 04:59:27;;;;;;;30.98;23.75;;;;;;;;;;5013101;28;20060;-67
2022/05/07 05:01:53;;;;;;;35.47;24.73;;;;;;;;;;5013869;28;20042;-67
2022/05/07 05:04:19;;;;;;;29.48;23.88;;;;;;;;;;5013178;28;20045;-67
2022/05/07 05:06:45;;;;;;;29.38;23.80;;;;;;;;;;5013349;28;20054;-67
2022/05/07 05:09:14;;;;;;;29.63;23.25;;;;;;;;;;5013273;28;20049;-67
2022/05/07 05:11:41;;;;;;;29.42;22.73;;;;;;;;;;5012824;28;20049;-67
2022/05/07 05:16:52;;;;;;;33.72;24.13;;;;;;;;;;5013471;28;20042;-67
2022/05/07 05:19:19;;;;;;;33.40;24.10;;;;;;;;;;5011580;28;20045;-67
2022/05/07 05:21:45;;;;;;;31.00;22.30;;;;;;;;;;5013501;28;20165;-67
2022/05/07 05:24:11;;;;;;;31.90;22.08;;;;;;;;;;5013240;28;20100;-67
2022/05/07 05:26:37;;;;;;;32.72;23.55;;;;;;;;;;5012191;28;20056;-67
2022/05/07 05:29:03;;;;;;;31.38;23.90;;;;;;;;;;5013140;28;20377;-67
2022/05/07 05:31:30;;;;;;;28.25;22.95;;;;;;;;;;5013237;28;20041;-67
2022/05/07 05:33:57;;;;;;;32.35;23.58;;;;;;;;;;5012456;28;20057;-67
2022/05/07 05:36:30;;;;;;;31.73;22.38;;;;;;;;;;5012864;28;20046;-67
2022/05/07 05:38:56;;;;;;;30.80;22.88;;;;;;;;;;5013080;28;20491;-67
2022/05/07 05:41:22;;;;;;;31.08;22.20;;;;;;;;;;5012430;28;20091;-67
2022/05/07 05:43:48;;;;;;;34.63;23.02;;;;;;;;;;5012904;28;20041;-67
2022/05/07 05:46:14;;;;;;;28.58;22.33;;;;;;;;;;5012801;28;20050;-67
2022/05/07 05:48:41;;;;;;;35.38;23.08;;;;;;;;;;5010820;28;20073;-67
2022/05/07 05:51:07;;;;;;;30.77;22.63;;;;;;;;;;5012897;28;20076;-67
2022/05/07 05:53:33;;;;;;;29.55;22.42;;;;;;;;;;5012808;28;20044;-67
2022/05/07 05:56:00;;;;;;;28.40;21.70;;;;;;;;;;5012071;28;20501;-67
2022/05/07 05:58:32;;;;;;;27.80;21.20;;;;;;;;;;5012702;28;20418;-67
2022/05/07 06:00:59;;;;;;;31.33;22.13;;;;;;;;;;5012704;28;20053;-67
2022/05/07 06:03:25;;;;;;;33.97;22.70;;;;;;;;;;5011941;28;20454;-67
2022/05/07 06:05:51;;;;;;;31.92;21.77;;;;;;;;;;5012321;28;20065;-67
2022/05/07 06:08:17;;;;;;;29.35;22.20;;;;;;;;;;5012361;28;20053;-67
2022/05/07 06:10:43;;;;;;;33.13;22.67;;;;;;;;;;5011274;28;20434;-67
2022/05/07 06:13:09;;;;;;;33.30;22.58;;;;;;;;;;5012137;28;20085;-67
2022/05/07 06:15:35;;;;;;;32.55;22.00;;;;;;;;;;5012417;28;20408;-67
2022/05/07 06:18:01;;;;;;;28.73;21.08;;;;;;;;;;5011523;28;20046;-67
2022/05/07 06:20:27;;;;;;;32.20;21.27;;;;;;;;;;5012300;28;20041;-67
2022/05/07 06:22:57;;;;;;;29.42;21.17;;;;;;;;;;5012264;28;20034;-67
2022/05/07 06:28:08;;;;;;;26.10;19.88;;;;;;;;;;5012067;28;20046;-67
2022/05/07 06:30:35;;;;;;;24.27;19.45;;;;;;;;;;5012129;28;20053;-67
2022/05/07 06:33:01;;;;;;;26.73;19.83;;;;;;;;;;5011489;28;20049;-67
2022/05/07 06:35:27;;;;;;;27.08;19.20;;;;;;;;;;5012101;28;20042;-67
2022/05/07 06:37:54;;;;;;;27.33;19.65;;;;;;;;;;5011924;28;20041;-67
2022/05/07 06:40:20;;;;;;;26.35;18.60;;;;;;;;;;5011177;28;20114;-67
2022/05/07 06:42:46;;;;;;;28.10;19.60;;;;;;;;;;5012028;28;20453;-67
2022/05/07 06:45:12;;;;;;;25.30;19.83;;;;;;;;;;5012075;28;20188;-67
2022/05/07 06:47:38;;;;;;;28.40;20.00;;;;;;;;;;5011302;28;20069;-67
2022/05/07 06:50:05;;;;;;;25.77;20.00;;;;;;;;;;5011866;28;20037;-67
2022/05/07 06:52:31;;;;;;;31.80;20.63;;;;;;;;;;5011835;28;20049;-67
2022/05/07 06:54:57;;;;;;;26.10;19.42;;;;;;;;;;5011077;28;20042;-67
2022/05/07 06:57:24;;;;;;;26.17;19.52;;;;;;;;;;5011800;28;20396;-67
2022/05/07 06:59:50;;;;;;;26.92;19.60;;;;;;;;;;5011879;28;20539;-67
2022/05/07 07:02:16;;;;;;;27.55;18.40;;;;;;;;;;5010886;28;20042;-67
2022/05/07 07:04:42;;;;;;;21.75;17.83;;;;;;;;;;5011536;28;20046;-67
2022/05/07 07:07:08;;;;;;;25.02;16.65;;;;;;;;;;5011307;28;20089;-67
2022/05/07 07:09:35;;;;;;;26.25;16.27;;;;;;;;;;5011088;28;20489;-67
2022/05/07 07:12:01;;;;;;;24.17;16.75;;;;;;;;;;5011772;28;20091;-67
2022/05/07 07:14:27;;;;;;;22.83;16.98;;;;;;;;;;5011819;28;20037;-67
2022/05/07 07:16:53;;;;;;;22.98;16.08;;;;;;;;;;5011083;28;20121;-67
2022/05/07 07:19:19;;;;;;;22.73;15.80;;;;;;;;;;5011602;28;20491;-67
2022/05/07 07:21:45;;;;;;;25.92;16.90;;;;;;;;;;5011395;28;20073;-67
2022/05/07 07:24:11;;;;;;;22.50;15.70;;;;;;;;;;5014365;28;20096;-67
2022/05/07 07:26:37;;;;;;;22.27;15.18;;;;;;;;;;5015265;28;20038;-67
2022/05/07 07:29:04;;;;;;;22.27;14.70;;;;;;;;;;5015333;28;20045;-67
2022/05/07 07:31:31;;;;;;;21.45;14.60;;;;;;;;;;5014629;28;20149;-67
2022/05/07 07:33:57;;;;;;;21.00;14.27;;;;;;;;;;5015383;28;20057;-67
2022/05/07 07:36:23;;;;;;;21.13;16.00;;;;;;;;;;5015238;28;20085;-67
2022/05/07 07:38:49;;;;;;;23.38;15.68;;;;;;;;;;5014576;28;20092;-67
2022/05/07 07:41:16;;;;;;;26.40;16.23;;;;;;;;;;5015401;28;20033;-67
2022/05/07 07:43:43;;;;;;;23.45;17.17;;;;;;;;;;5015418;28;20719;-67
2022/05/07 07:48:53;;;;;;;27.30;18.27;;;;;;;;;;5014968;28;20045;-67
2022/05/07 07:51:19;;;;;;;27.05;19.27;;;;;;;;;;5015219;28;20049;-67
2022/05/07 07:53:46;;;;;;;31.50;21.10;;;;;;;;;;5014173;28;20052;-67
2022/05/07 07:56:12;;;;;;;30.48;21.10;;;;;;;;;;5015024;28;20068;-67
2022/05/07 07:58:38;;;;;;;30.52;21.58;;;;;;;;;;5014919;28;20038;-67
2022/05/07 08:01:04;;;;;;;30.75;21.90;;;;;;;;;;5014343;28;20088;-67
2022/05/07 08:03:30;;;;;;;28.90;20.55;;;;;;;;;;5014978;28;20042;-67
2022/05/07 08:05:57;;;;;;;29.90;20.42;;;;;;;;;;5014745;28;20588;-67
2022/05/07 08:13:53;;;;;;;37.10;23.65;;;;;;;;;;5014645;28;20042;-67
2022/05/07 08:16:20;;;;;;;30.17;21.05;;;;;;;;;;5013994;28;20050;-67
2022/05/07 08:18:47;;;;;;;30.80;21.98;;;;;;;;;;5014251;28;20053;-67
2022/05/07 08:21:13;;;;;;;33.20;23.90;;;;;;;;;;5014382;28;20038;-67
2022/05/07 08:23:40;;;;;;;35.30;22.83;;;;;;;;;;5013688;28;20117;-67
2022/05/07 08:26:06;;;;;;;32.92;23.58;;;;;;;;;;5014181;28;20073;-67
2022/05/07 08:28:33;;;;;;;30.27;22.33;;;;;;;;;;5013051;28;20061;-67
2022/05/07 08:31:00;;;;;;;31.48;22.83;;;;;;;;;;5013701;28;20045;-67
2022/05/07 08:33:26;;;;;;;34.70;23.83;;;;;;;;;;5014149;28;20380;-67
2022/05/07 08:35:52;;;;;;;34.05;23.23;;;;;;;;;;5013182;28;20041;-67
2022/05/07 08:38:19;;;;;;;37.30;23.50;;;;;;;;;;5013210;28;20038;-67
2022/05/07 08:40:45;;;;;;;30.30;22.38;;;;;;;;;;5014299;28;20476;-67
2022/05/07 08:43:11;;;;;;;32.30;21.90;;;;;;;;;;5014058;28;20042;-67
2022/05/07 08:45:40;;;;;;;31.45;21.90;;;;;;;;;;5013482;28;20045;-67
2022/05/07 08:48:06;;;;;;;30.67;21.60;;;;;;;;;;5014004;28;20045;-67
2022/05/07 08:50:32;;;;;;;39.00;24.90;;;;;;;;;;5013944;28;20041;-67
2022/05/07 08:52:58;;;;;;;33.47;23.58;;;;;;;;;;5012967;28;20045;-67
2022/05/07 08:55:25;;;;;;;34.17;23.13;;;;;;;;;;5013864;28;20044;-67
2022/05/07 08:57:51;;;;;;;31.17;22.63;;;;;;;;;;5013805;28;20037;-67
2022/05/07 09:00:18;;;;;;;32.92;23.02;;;;;;;;;;5013197;28;20046;-67
2022/05/07 09:02:46;;;;;;;34.88;25.55;;;;;;;;;;5013709;28;20385;-67
2022/05/07 09:05:14;;;;;;;32.17;23.00;;;;;;;;;;5013473;28;20034;-67
2022/05/07 09:07:41;;;;;;;38.83;24.42;;;;;;;;;;5012880;28;20041;-67
2022/05/07 09:10:11;;;;;;;31.55;21.50;;;;;;;;;;5012505;28;20054;-67
2022/05/07 09:12:37;;;;;;;36.97;24.45;;;;;;;;;;5013726;28;20112;-67
2022/05/07 09:15:04;;;;;;;35.20;23.77;;;;;;;;;;5012980;28;20038;-67
2022/05/07 09:17:31;;;;;;;36.35;24.80;;;;;;;;;;5013537;28;20056;-67
2022/05/07 09:19:57;;;;;;;36.88;25.02;;;;;;;;;;5013046;28;20124;-67
2022/05/07 09:22:25;;;;;;;34.83;24.30;;;;;;;;;;5012763;28;20484;-67
2022/05/07 09:24:55;;;;;;;32.00;23.38;;;;;;;;;;5013355;28;20084;-67
2022/05/07 09:27:22;;;;;;;33.08;24.23;;;;;;;;;;5013105;28;20045;-67
2022/05/07 09:30:02;;;;;;;30.98;23.45;;;;;;;;;;5012158;28;20081;-67
2022/05/07 09:32:36;;;;;;;34.40;22.80;;;;;;;;;;5013377;28;20046;-67
2022/05/07 09:37:48;;;;;;;32.15;23.13;;;;;;;;;;5012345;28;20400;-67
2022/05/07 09:40:14;;;;;;;34.00;23.40;;;;;;;;;;5011930;28;20050;-67
2022/05/07 09:42:42;;;;;;;33.88;24.23;;;;;;;;;;5012869;28;20046;-67
2022/05/07 09:45:08;;;;;;;31.90;23.30;;;;;;;;;;5012261;28;20048;-67
2022/05/07 09:47:34;;;;;;;35.90;25.05;;;;;;;;;;5013045;28;20042;-67
2022/05/07 09:58:17;;;;;;;36.42;25.88;;;;;;;;;;5012759;28;20042;-67
2022/05/07 10:00:50;;;;;;;31.98;23.52;;;;;;;;;;5011958;28;20137;-67
2022/05/07 10:03:20;;;;;;;35.88;26.63;;;;;;;;;;5012615;28;20126;-67
2022/05/07 10:05:52;;;;;;;34.72;24.75;;;;;;;;;;5012422;28;20137;-67
2022/05/07 10:08:40;;;;;;;35.75;24.42;;;;;;;;;;5011496;28;20085;-67
2022/05/07 10:11:06;;;;;;;34.85;25.00;;;;;;;;;;5012673;28;20064;-67
2022/05/07 10:13:33;;;;;;;36.42;25.85;;;;;;;;;;5012646;28;20540;-67
2022/05/07 10:16:02;;;;;;;35.97;25.58;;;;;;;;;;5011876;28;20497;-67
2022/05/07 10:18:41;;;;;;;35.38;25.35;;;;;;;;;;5012351;28;20040;-67
2022/05/07 10:21:17;;;;;;;35.53;25.48;;;;;;;;;;5012591;28;20472;-67
2022/05/07 10:23:50;;;;;;;36.63;25.98;;;;;;;;;;5011774;28;20073;-67
2022/05/07 10:26:16;;;;;;;35.60;26.02;;;;;;;;;;5011998;28;20048;-67
2022/05/07 10:28:42;;;;;;;36.40;25.73;;;;;;;;;;5011875;28;20500;-67
2022/05/07 10:31:18;;;;;;;32.08;25.27;;;;;;;;;;5010802;28;20049;-67
2022/05/07 10:33:44;;;;;;;31.98;23.55;;;;;;;;;;5012327;28;20120;-67
2022/05/07 10:36:11;;;;;;;33.35;24.08;;;;;;;;;;5010294;28;20042;-67
2022/05/07 10:38:38;;;;;;;28.17;22.73;;;;;;;;;;5011678;28;20049;-67
2022/05/07 10:41:18;;;;;;;34.38;24.23;;;;;;;;;;5012043;28;20044;-67
2022/05/07 10:43:56;;;;;;;34.95;24.92;;;;;;;;;;5010048;28;20045;-67
2022/05/07 10:46:23;;;;;;;32.92;23.05;;;;;;;;;;5011973;28;20057;-67
2022/05/07 10:48:50;;;;;;;33.13;23.17;;;;;;;;;;5011856;28;20041;-67
2022/05/07 10:51:19;;;;;;;32.08;24.90;;;;;;;;;;5009802;28;20049;-67
2022/05/07 10:53:46;;;;;;;32.55;25.40;;;;;;;;;;5011956;28;20042;-67
2022/05/07 10:56:13;;;;;;;32.13;24.02;;;;;;;;;;5011792;28;20049;-67
2022/05/07 10:58:44;;;;;;;34.83;23.88;;;;;;;;;;5010453;28;20053;-67
2022/05/07 11:01:10;;;;;;;31.58;23.75;;;;;;;;;;5011964;28;20121;-67
2022/05/07 11:03:36;;;;;;;29.63;23.75;;;;;;;;;;5011804;28;20041;-67
2022/05/07 11:06:02;;;;;;;34.65;24.98;;;;;;;;;;5011123;28;20057;-67
2022/05/07 11:08:30;;;;;;;33.60;24.23;;;;;;;;;;5011579;28;20048;-67
2022/05/07 11:11:14;;;;;;;30.83;24.98;;;;;;;;;;5010306;28;20052;-67
2022/05/07 11:14:07;;;;;;;34.53;24.08;;;;;;;;;;5010881;28;20069;-67
2022/05/07 11:16:33;;;;;;;;;;;;;;;;;;5008792;28;20100;-67
2022/05/07 11:18:59;;;;;;;29.38;22.23;;;;;;;;;;5011674;28;19917;-67
2022/05/07 11:21:25;;;;;;;28.05;21.45;;;;;;;;;;5011085;28;20124;-67
2022/05/07 11:24:00;;;;;;;32.40;23.08;;;;;;;;;;5011832;28;20045;-67
2022/05/07 11:26:26;;;;;;;29.05;22.40;;;;;;;;;;5011451;28;20054;-67
2022/05/07 11:28:52;;;;;;;27.02;22.05;;;;;;;;;;5010829;28;20447;-67
2022/05/07 11:31:25;;;;;;;28.40;20.70;;;;;;;;;;5011290;28;20077;-67
2022/05/07 11:34:00;;;;;;;26.40;20.52;;;;;;;;;;5011296;28;20053;-67
2022/05/07 11:36:27;;;;;;;26.15;20.05;;;;;;;;;;5010867;28;20042;-67
2022/05/07 11:39:00;;;;;;;23.55;18.63;;;;;;;;;;5011184;28;20034;-67
2022/05/07 11:41:26;;;;;;;28.08;20.55;;;;;;;;;;5011412;28;20042;-67
2022/05/07 11:46:53;;;;;;;23.50;19.30;;;;;;;;;;5011432;28;20042;-67
2022/05/07 11:49:33;;;;;;;26.48;19.58;;;;;;;;;;5011311;28;20084;-68
2022/05/07 11:52:05;;;;;;;21.08;16.05;;;;;;;;;;5010840;28;20528;-68
2022/05/07 11:54:31;;;;;;;25.00;19.13;;;;;;;;;;5011398;28;20108;-68
2022/05/07 11:56:59;;;;;;;25.27;16.85;;;;;;;;;;5010959;28;20096;-68
2022/05/07 11:59:25;;;;;;;27.45;20.05;;;;;;;;;;5010354;28;20056;-68
2022/05/07 12:01:51;;;;;;;26.80;19.67;;;;;;;;;;5010063;28;20480;-68
2022/05/07 12:04:17;;;;;;;25.23;17.67;;;;;;;;;;5011131;28;20038;-68
2022/05/07 12:06:54;;;;;;;23.92;19.27;;;;;;;;;;5010511;28;20137;-68
2022/05/07 12:09:21;;;;;;;27.98;19.08;;;;;;;;;;5013208;28;20038;-68
2022/05/07 12:11:48;;;;;;;26.52;19.27;;;;;;;;;;5013356;28;20054;-68
2022/05/07 12:14:15;;;;;;;29.45;19.85;;;;;;;;;;5014246;28;20046;-68
2022/05/07 12:19:29;;;;;;;27.33;19.30;;;;;;;;;;5014626;28;20046;-68
2022/05/07 12:30:14;;;;;;;28.30;19.15;;;;;;;;;;5014418;28;20054;-68
2022/05/07 12:32:43;;;;;;;30.55;19.88;;;;;;;;;;5014306;28;20049;-68
2022/05/07 12:35:10;;;;;;;25.10;18.48;;;;;;;;;;5012355;28;20057;-68
2022/05/07 12:37:37;;;;;;;26.70;18.90;;;;;;;;;;5014254;28;20137;-68
2022/05/07 12:40:04;;;;;;;28.27;20.85;;;;;;;;;;5014200;28;20481;-68
2022/05/07 12:42:30;;;;;;;34.60;22.75;;;;;;;;;;5013577;28;20045;-68
2022/05/07 12:44:56;;;;;;;32.83;23.80;;;;;;;;;;5014307;28;20399;-68
2022/05/07 12:47:23;;;;;;;36.33;24.52;;;;;;;;;;5012941;28;20129;-68
2022/05/07 12:49:49;;;;;;;37.72;25.58;;;;;;;;;;5013388;28;20084;-68
2022/05/07 12:52:16;;;;;;;40.40;26.25;;;;;;;;;;5013789;28;20125;-68
2022/05/07 12:54:42;;;;;;;33.55;23.88;;;;;;;;;;5014047;28;20157;-68
2022/05/07 12:57:10;;;;;;;32.28;23.00;;;;;;;;;;5013162;28;20591;-68
2022/05/07 12:59:36;;;;;;;39.10;24.60;;;;;;;;;;5013931;28;20074;-68
2022/05/07 13:02:06;;;;;;;36.03;23.75;;;;;;;;;;5013977;28;20165;-68
2022/05/07 13:04:32;;;;;;;41.58;26.13;;;;;;;;;;5011749;28;20042;-68
2022/05/07 13:06:59;;;;;;;39.22;25.90;;;;;;;;;;5013363;28;20467;-68
2022/05/07 13:09:25;;;;;;;39.08;25.80;;;;;;;;;;5013172;28;20045;-68
2022/05/07 13:11:51;;;;;;;37.38;25.83;;;;;;;;;;5013066;28;20046;-68
2022/05/07 13:14:18;;;;;;;40.63;27.27;;;;;;;;;;5013829;28;20083;-68
2022/05/07 13:16:44;;;;;;;39.10;23.58;;;;;;;;;;5013726;28;20046;-68
2022/05/07 13:19:10;;;;;;;36.25;24.38;;;;;;;;;;5011765;28;20042;-68
2022/05/07 13:21:36;;;;;;;37.45;23.65;;;;;;;;;;5012968;28;20037;-68
2022/05/07 13:24:02;;;;;;;36.65;23.80;;;;;;;;;;5013549;28;20125;-68
2022/05/07 13:26:29;;;;;;;34.20;23.10;;;;;;;;;;5012713;28;20119;-68
2022/05/07 13:28:56;;;;;;;31.35;22.42;;;;;;;;;;5013236;28;20050;-68
2022/05/07 13:31:22;;;;;;;33.55;22.73;;;;;;;;;;5013014;28;20473;-68
2022/05/07 13:33:48;;;;;;;29.70;20.60;;;;;;;;;;5012487;28;20113;-68
2022/05/07 13:36:14;;;;;;;26.10;18.13;;;;;;;;;;5013163;28;20169;-68
2022/05/07 13:38:40;;;;;;;25.60;17.40;;;;;;;;;;5012918;28;20038;-68
2022/05/07 13:41:06;;;;;;;26.38;17.10;;;;;;;;;;5012872;28;20033;-68
2022/05/07 13:43:32;;;;;;;22.75;15.27;;;;;;;;;;5012609;28;20366;-68
2022/05/07 13:45:58;;;;;;;23.88;15.13;;;;;;;;;;5013147;28;20049;-68
2022/05/07 13:48:25;;;;;;;20.13;14.10;;;;;;;;;;5012790;28;20038;-68
2022/05/07 13:50:51;;;;;;;19.15;12.60;;;;;;;;;;5012359;28;20425;-68
2022/05/07 13:53:18;;;;;;;18.77;13.18;;;;;;;;;;5012966;28;20064;-68
2022/05/07 13:55:44;;;;;;;16.13;11.93;;;;;;;;;;5012715;28;20060;-68
2022/05/07 13:58:11;;;;;;;17.98;11.57;;;;;;;;;;5010880;28;20045;-68
2022/05/07 14:00:37;;;;;;;14.57;11.13;;;;;;;;;;5012727;28;20049;-68
2022/05/07 14:03:03;;;;;;;15.25;10.45;;;;;;;;;;5012639;28;20132;-68
2022/05/07 14:05:29;;;;;;;15.70;10.75;;;;;;;;;;5011904;28;20066;-68
2022/05/07 14:07:55;;;;;;;15.27;10.77;;;;;;;;;;5012258;28;20075;-68
2022/05/07 14:10:22;;;;;;;17.65;11.10;;;;;;;;;;5012673;28;20130;-68
2022/05/07 14:12:48;;;;;;;17.30;10.90;;;;;;;;;;5010716;28;20369;-68
2022/05/07 14:15:14;;;;;;;15.90;10.85;;;;;;;;;;5012593;28;20038;-68
2022/05/07 14:17:40;;;;;;;16.40;10.93;;;;;;;;;;5010970;28;20046;-68
2022/05/07 14:20:07;;;;;;;14.38;11.07;;;;;;;;;;5011792;28;20528;-68
2022/05/07 14:22:33;;;;;;;15.95;11.10;;;;;;;;;;5012102;28;20049;-68
2022/05/07 14:25:03;;;;;;;15.50;9.85;;;;;;;;;;5012377;28;20088;-68
2022/05/07 14:27:30;;;;;;;13.68;10.43;;;;;;;;;;5011547;28;20048;-68
2022/05/07 14:29:56;;;;;;;15.65;10.70;;;;;;;;;;5011943;28;20077;-68
2022/05/07 14:32:23;;;;;;;14.50;10.32;;;;;;;;;;5011409;28;20120;-68
2022/05/07 14:34:49;;;;;;;17.70;11.20;;;;;;;;;;5011810;28;20038;-68
2022/05/07 14:37:15;;;;;;;18.85;11.65;;;;;;;;;;5011764;28;20522;-68
2022/05/07 14:39:41;;;;;;;16.83;11.77;;;;;;;;;;5012101;28;20045;-68
2022/05/07 14:42:08;;;;;;;17.05;11.10;;;;;;;;;;5010165;28;20491;-68
2022/05/07 14:44:34;;;;;;;17.88;12.43;;;;;;;;;;5011951;28;20443;-68
2022/05/07 14:47:00;;;;;;;17.02;11.45;;;;;;;;;;5012110;28;20041;-68
2022/05/07 14:49:26;;;;;;;17.00;11.52;;;;;;;;;;5011270;28;20038;-68
2022/05/07 14:51:52;;;;;;;15.73;11.00;;;;;;;;;;5011942;28;20057;-68
2022/05/07 14:54:19;;;;;;;17.98;10.38;;;;;;;;;;5011900;28;20038;-68
2022/05/07 14:56:45;;;;;;;11.00;7.60;;;;;;;;;;5011295;28;20213;-68